sensor_id;sensor_type;location;lat;lon;timestamp;temperature;humidity
563;DHT22;266;49.514;8.294;2023-05-07T00:01:37;15.50;99.90
563;DHT22;266;49.514;8.294;2023-05-07T00:04:05;15.50;99.90
563;DHT22;266;49.514;8.294;2023-05-07T00:06:34;15.40;99.90
563;DHT22;266;49.514;8.294;2023-05-07T00:09:02;15.40;99.90
563;DHT22;266;49.514;8.294;2023-05-07T00:11:31;15.40;99.90
563;DHT22;266;49.514;8.294;2023-05-07T00:14:02;15.30;99.90
563;DHT22;266;49.514;8.294;2023-05-07T00:16:29;15.30;99.90
563;DHT22;266;49.514;8.294;2023-05-07T00:18:58;15.20;99.90
563;DHT22;266;49.514;8.294;2023-05-07T00:21:26;15.20;99.90
563;DHT22;266;49.514;8.294;2023-05-07T00:23:54;15.20;99.90
563;DHT22;266;49.514;8.294;2023-05-07T00:26:22;15.20;99.90
563;DHT22;266;49.514;8.294;2023-05-07T00:28:50;15.10;99.90
563;DHT22;266;49.514;8.294;2023-05-07T00:31:19;15.10;99.90
563;DHT22;266;49.514;8.294;2023-05-07T00:33:47;15.10;99.90
563;DHT22;266;49.514;8.294;2023-05-07T00:36:15;15.10;99.90
563;DHT22;266;49.514;8.294;2023-05-07T00:38:43;15.10;99.90
563;DHT22;266;49.514;8.294;2023-05-07T00:41:11;15.10;99.90
563;DHT22;266;49.514;8.294;2023-05-07T00:43:39;15.10;99.90
563;DHT22;266;49.514;8.294;2023-05-07T00:46:07;15.00;99.90
563;DHT22;266;49.514;8.294;2023-05-07T00:48:36;15.00;99.90
563;DHT22;266;49.514;8.294;2023-05-07T00:51:04;15.00;99.90
563;DHT22;266;49.514;8.294;2023-05-07T00:53:32;15.00;99.90
563;DHT22;266;49.514;8.294;2023-05-07T00:56:00;14.90;99.90
563;DHT22;266;49.514;8.294;2023-05-07T00:58:29;14.90;99.90
563;DHT22;266;49.514;8.294;2023-05-07T01:00:57;14.90;99.90
563;DHT22;266;49.514;8.294;2023-05-07T01:03:25;14.90;99.90
563;DHT22;266;49.514;8.294;2023-05-07T01:05:57;14.80;99.90
563;DHT22;266;49.514;8.294;2023-05-07T01:08:26;14.70;99.90
563;DHT22;266;49.514;8.294;2023-05-07T01:10:56;14.70;99.90
563;DHT22;266;49.514;8.294;2023-05-07T01:13:25;14.70;99.90
563;DHT22;266;49.514;8.294;2023-05-07T01:15:53;14.60;99.90
563;DHT22;266;49.514;8.294;2023-05-07T01:18:21;14.60;99.90
563;DHT22;266;49.514;8.294;2023-05-07T01:20:49;14.60;99.90
563;DHT22;266;49.514;8.294;2023-05-07T01:23:19;14.60;99.90
563;DHT22;266;49.514;8.294;2023-05-07T01:25:51;14.50;99.90
563;DHT22;266;49.514;8.294;2023-05-07T01:28:20;14.60;99.90
563;DHT22;266;49.514;8.294;2023-05-07T01:30:51;14.50;99.90
563;DHT22;266;49.514;8.294;2023-05-07T01:33:21;14.40;99.90
563;DHT22;266;49.514;8.294;2023-05-07T01:35:53;14.40;99.90
563;DHT22;266;49.514;8.294;2023-05-07T01:38:23;14.40;99.90
563;DHT22;266;49.514;8.294;2023-05-07T01:40:51;14.30;99.90
563;DHT22;266;49.514;8.294;2023-05-07T01:43:20;14.30;99.90
563;DHT22;266;49.514;8.294;2023-05-07T01:45:48;14.30;99.90
563;DHT22;266;49.514;8.294;2023-05-07T01:48:17;14.30;99.90
563;DHT22;266;49.514;8.294;2023-05-07T01:50:45;14.20;99.90
563;DHT22;266;49.514;8.294;2023-05-07T01:53:14;14.20;99.90
563;DHT22;266;49.514;8.294;2023-05-07T01:55:43;14.20;99.90
563;DHT22;266;49.514;8.294;2023-05-07T01:58:11;14.10;99.90
563;DHT22;266;49.514;8.294;2023-05-07T02:00:39;14.10;99.90
563;DHT22;266;49.514;8.294;2023-05-07T02:03:08;14.00;99.90
563;DHT22;266;49.514;8.294;2023-05-07T02:05:38;14.00;99.90
563;DHT22;266;49.514;8.294;2023-05-07T02:08:06;14.00;99.90
563;DHT22;266;49.514;8.294;2023-05-07T02:10:34;13.90;99.90
563;DHT22;266;49.514;8.294;2023-05-07T02:13:04;13.90;99.90
563;DHT22;266;49.514;8.294;2023-05-07T02:15:32;13.90;99.90
563;DHT22;266;49.514;8.294;2023-05-07T02:18:02;13.80;99.90
563;DHT22;266;49.514;8.294;2023-05-07T02:20:30;13.80;99.90
563;DHT22;266;49.514;8.294;2023-05-07T02:22:58;13.80;99.90
563;DHT22;266;49.514;8.294;2023-05-07T02:25:26;13.80;99.90
563;DHT22;266;49.514;8.294;2023-05-07T02:27:55;13.80;99.90
563;DHT22;266;49.514;8.294;2023-05-07T02:30:25;13.80;99.90
563;DHT22;266;49.514;8.294;2023-05-07T02:32:53;13.70;99.90
563;DHT22;266;49.514;8.294;2023-05-07T02:35:21;13.70;99.90
563;DHT22;266;49.514;8.294;2023-05-07T02:37:49;13.70;99.90
563;DHT22;266;49.514;8.294;2023-05-07T02:40:17;13.70;99.90
563;DHT22;266;49.514;8.294;2023-05-07T02:42:45;13.70;99.90
563;DHT22;266;49.514;8.294;2023-05-07T02:45:13;13.70;99.90
563;DHT22;266;49.514;8.294;2023-05-07T02:47:43;13.60;99.90
563;DHT22;266;49.514;8.294;2023-05-07T02:50:11;13.60;99.90
563;DHT22;266;49.514;8.294;2023-05-07T02:52:39;13.60;99.90
563;DHT22;266;49.514;8.294;2023-05-07T02:55:08;13.60;99.90
563;DHT22;266;49.514;8.294;2023-05-07T02:57:36;13.60;99.90
563;DHT22;266;49.514;8.294;2023-05-07T03:00:11;13.60;99.90
563;DHT22;266;49.514;8.294;2023-05-07T03:02:39;13.60;99.90
563;DHT22;266;49.514;8.294;2023-05-07T03:05:09;13.60;99.90
563;DHT22;266;49.514;8.294;2023-05-07T03:07:37;13.50;99.90
563;DHT22;266;49.514;8.294;2023-05-07T03:10:06;13.50;99.90
563;DHT22;266;49.514;8.294;2023-05-07T03:12:37;13.50;99.90
563;DHT22;266;49.514;8.294;2023-05-07T03:15:06;13.50;99.90
563;DHT22;266;49.514;8.294;2023-05-07T03:17:34;13.50;99.90
563;DHT22;266;49.514;8.294;2023-05-07T03:20:03;13.50;99.90
563;DHT22;266;49.514;8.294;2023-05-07T03:22:33;13.50;99.90
563;DHT22;266;49.514;8.294;2023-05-07T03:25:01;13.50;99.90
563;DHT22;266;49.514;8.294;2023-05-07T03:27:29;13.50;99.90
563;DHT22;266;49.514;8.294;2023-05-07T03:29:57;13.50;99.90
563;DHT22;266;49.514;8.294;2023-05-07T03:32:25;13.60;99.90
563;DHT22;266;49.514;8.294;2023-05-07T03:34:53;13.50;99.90
563;DHT22;266;49.514;8.294;2023-05-07T03:37:23;13.50;99.90
563;DHT22;266;49.514;8.294;2023-05-07T03:39:52;13.50;99.90
563;DHT22;266;49.514;8.294;2023-05-07T03:42:20;13.50;99.90
563;DHT22;266;49.514;8.294;2023-05-07T03:44:48;13.40;99.90
563;DHT22;266;49.514;8.294;2023-05-07T03:47:16;13.40;99.90
563;DHT22;266;49.514;8.294;2023-05-07T03:49:44;13.30;99.90
563;DHT22;266;49.514;8.294;2023-05-07T03:52:12;13.30;99.90
563;DHT22;266;49.514;8.294;2023-05-07T03:54:40;13.30;99.90
563;DHT22;266;49.514;8.294;2023-05-07T03:57:09;13.30;99.90
563;DHT22;266;49.514;8.294;2023-05-07T03:59:37;13.20;99.90
563;DHT22;266;49.514;8.294;2023-05-07T04:02:05;13.20;99.90
563;DHT22;266;49.514;8.294;2023-05-07T04:04:33;13.20;99.90
563;DHT22;266;49.514;8.294;2023-05-07T04:07:01;13.10;99.90
563;DHT22;266;49.514;8.294;2023-05-07T04:09:30;13.20;99.90
563;DHT22;266;49.514;8.294;2023-05-07T04:11:58;13.10;99.90
563;DHT22;266;49.514;8.294;2023-05-07T04:14:27;13.10;99.90
563;DHT22;266;49.514;8.294;2023-05-07T04:16:55;13.10;99.90
563;DHT22;266;49.514;8.294;2023-05-07T04:19:23;13.10;99.90
563;DHT22;266;49.514;8.294;2023-05-07T04:21:51;13.10;99.90
563;DHT22;266;49.514;8.294;2023-05-07T04:24:18;13.10;99.90
563;DHT22;266;49.514;8.294;2023-05-07T04:26:46;13.10;99.90
563;DHT22;266;49.514;8.294;2023-05-07T04:29:14;13.20;99.90
563;DHT22;266;49.514;8.294;2023-05-07T04:31:44;13.30;99.90
563;DHT22;266;49.514;8.294;2023-05-07T04:34:12;13.20;99.90
563;DHT22;266;49.514;8.294;2023-05-07T04:36:42;13.20;99.90
563;DHT22;266;49.514;8.294;2023-05-07T04:39:10;13.30;99.90
563;DHT22;266;49.514;8.294;2023-05-07T04:41:38;13.30;99.90
563;DHT22;266;49.514;8.294;2023-05-07T04:44:06;13.40;99.90
563;DHT22;266;49.514;8.294;2023-05-07T04:46:34;13.40;99.90
563;DHT22;266;49.514;8.294;2023-05-07T04:49:03;13.40;99.90
563;DHT22;266;49.514;8.294;2023-05-07T04:51:32;13.50;99.90
563;DHT22;266;49.514;8.294;2023-05-07T04:54:00;13.50;99.90
563;DHT22;266;49.514;8.294;2023-05-07T04:56:28;13.60;99.90
563;DHT22;266;49.514;8.294;2023-05-07T04:58:56;13.60;99.90
563;DHT22;266;49.514;8.294;2023-05-07T05:01:24;13.70;99.90
563;DHT22;266;49.514;8.294;2023-05-07T05:03:52;13.70;99.90
563;DHT22;266;49.514;8.294;2023-05-07T05:06:22;13.80;99.90
563;DHT22;266;49.514;8.294;2023-05-07T05:08:49;13.90;99.90
563;DHT22;266;49.514;8.294;2023-05-07T05:11:18;14.00;99.90
563;DHT22;266;49.514;8.294;2023-05-07T05:13:46;14.10;99.90
563;DHT22;266;49.514;8.294;2023-05-07T05:16:15;14.10;99.90
563;DHT22;266;49.514;8.294;2023-05-07T05:18:43;14.20;99.90
563;DHT22;266;49.514;8.294;2023-05-07T05:21:11;14.30;99.90
563;DHT22;266;49.514;8.294;2023-05-07T05:23:40;14.40;99.90
563;DHT22;266;49.514;8.294;2023-05-07T05:26:08;14.40;99.90
563;DHT22;266;49.514;8.294;2023-05-07T05:28:36;14.50;99.90
563;DHT22;266;49.514;8.294;2023-05-07T05:31:05;14.60;99.90
563;DHT22;266;49.514;8.294;2023-05-07T05:33:33;14.70;99.90
563;DHT22;266;49.514;8.294;2023-05-07T05:36:01;14.70;99.90
563;DHT22;266;49.514;8.294;2023-05-07T05:38:29;14.70;99.90
563;DHT22;266;49.514;8.294;2023-05-07T05:40:58;14.80;99.90
563;DHT22;266;49.514;8.294;2023-05-07T05:43:26;14.80;99.90
563;DHT22;266;49.514;8.294;2023-05-07T05:45:55;14.90;99.90
563;DHT22;266;49.514;8.294;2023-05-07T05:48:23;15.00;99.90
563;DHT22;266;49.514;8.294;2023-05-07T05:50:51;15.00;99.90
563;DHT22;266;49.514;8.294;2023-05-07T05:53:19;15.10;99.90
563;DHT22;266;49.514;8.294;2023-05-07T05:55:47;15.20;99.90
563;DHT22;266;49.514;8.294;2023-05-07T05:58:17;15.30;99.90
563;DHT22;266;49.514;8.294;2023-05-07T06:00:46;15.40;99.90
563;DHT22;266;49.514;8.294;2023-05-07T06:03:30;15.50;99.90
563;DHT22;266;49.514;8.294;2023-05-07T06:06:20;15.60;99.90
563;DHT22;266;49.514;8.294;2023-05-07T06:08:52;15.70;99.90
563;DHT22;266;49.514;8.294;2023-05-07T06:11:21;15.70;99.90
563;DHT22;266;49.514;8.294;2023-05-07T06:13:50;15.80;99.90
563;DHT22;266;49.514;8.294;2023-05-07T06:16:18;15.90;99.90
563;DHT22;266;49.514;8.294;2023-05-07T06:18:46;16.00;99.90
563;DHT22;266;49.514;8.294;2023-05-07T06:21:14;16.10;99.90
563;DHT22;266;49.514;8.294;2023-05-07T06:23:42;16.20;99.90
563;DHT22;266;49.514;8.294;2023-05-07T06:26:11;16.30;99.90
563;DHT22;266;49.514;8.294;2023-05-07T06:28:39;16.30;99.90
563;DHT22;266;49.514;8.294;2023-05-07T06:31:15;16.40;99.90
563;DHT22;266;49.514;8.294;2023-05-07T06:33:44;16.40;99.90
563;DHT22;266;49.514;8.294;2023-05-07T06:36:12;16.50;99.90
563;DHT22;266;49.514;8.294;2023-05-07T06:38:40;16.60;99.90
563;DHT22;266;49.514;8.294;2023-05-07T06:41:08;16.70;99.90
563;DHT22;266;49.514;8.294;2023-05-07T06:43:36;16.90;99.90
563;DHT22;266;49.514;8.294;2023-05-07T06:46:04;17.00;99.90
563;DHT22;266;49.514;8.294;2023-05-07T06:48:33;17.10;99.90
563;DHT22;266;49.514;8.294;2023-05-07T06:51:01;17.30;99.90
563;DHT22;266;49.514;8.294;2023-05-07T06:53:29;17.30;99.90
563;DHT22;266;49.514;8.294;2023-05-07T06:55:57;17.40;99.90
563;DHT22;266;49.514;8.294;2023-05-07T06:58:26;17.40;99.90
563;DHT22;266;49.514;8.294;2023-05-07T07:00:54;17.40;99.90
563;DHT22;266;49.514;8.294;2023-05-07T07:03:23;17.50;99.90
563;DHT22;266;49.514;8.294;2023-05-07T07:05:53;17.60;99.90
563;DHT22;266;49.514;8.294;2023-05-07T07:08:22;17.60;99.90
563;DHT22;266;49.514;8.294;2023-05-07T07:10:50;17.70;99.90
563;DHT22;266;49.514;8.294;2023-05-07T07:13:18;17.70;99.90
563;DHT22;266;49.514;8.294;2023-05-07T07:15:46;17.70;99.90
563;DHT22;266;49.514;8.294;2023-05-07T07:18:14;17.80;99.90
563;DHT22;266;49.514;8.294;2023-05-07T07:20:42;17.70;99.90
563;DHT22;266;49.514;8.294;2023-05-07T07:23:15;17.80;99.90
563;DHT22;266;49.514;8.294;2023-05-07T07:25:43;18.00;99.90
563;DHT22;266;49.514;8.294;2023-05-07T07:28:11;18.10;99.90
563;DHT22;266;49.514;8.294;2023-05-07T07:30:54;18.20;99.90
563;DHT22;266;49.514;8.294;2023-05-07T07:33:22;18.30;99.90
563;DHT22;266;49.514;8.294;2023-05-07T07:35:49;18.30;99.90
563;DHT22;266;49.514;8.294;2023-05-07T07:38:19;18.30;99.90
563;DHT22;266;49.514;8.294;2023-05-07T07:40:47;18.30;99.90
563;DHT22;266;49.514;8.294;2023-05-07T07:43:15;18.30;99.90
563;DHT22;266;49.514;8.294;2023-05-07T07:45:43;18.40;99.90
563;DHT22;266;49.514;8.294;2023-05-07T07:48:12;18.50;99.90
563;DHT22;266;49.514;8.294;2023-05-07T07:50:40;18.50;99.90
563;DHT22;266;49.514;8.294;2023-05-07T07:53:11;18.60;99.90
563;DHT22;266;49.514;8.294;2023-05-07T07:55:41;18.70;99.90
563;DHT22;266;49.514;8.294;2023-05-07T07:58:09;18.80;99.90
563;DHT22;266;49.514;8.294;2023-05-07T08:00:37;18.80;99.90
563;DHT22;266;49.514;8.294;2023-05-07T08:03:05;18.80;99.90
563;DHT22;266;49.514;8.294;2023-05-07T08:05:34;18.80;99.90
563;DHT22;266;49.514;8.294;2023-05-07T08:08:03;18.80;99.90
563;DHT22;266;49.514;8.294;2023-05-07T08:10:32;18.70;99.90
563;DHT22;266;49.514;8.294;2023-05-07T08:13:07;18.70;99.90
563;DHT22;266;49.514;8.294;2023-05-07T08:15:36;18.70;99.90
563;DHT22;266;49.514;8.294;2023-05-07T08:18:05;18.80;99.90
563;DHT22;266;49.514;8.294;2023-05-07T08:20:33;18.90;99.90
563;DHT22;266;49.514;8.294;2023-05-07T08:23:06;19.00;99.90
563;DHT22;266;49.514;8.294;2023-05-07T08:25:34;19.20;99.90
563;DHT22;266;49.514;8.294;2023-05-07T08:28:09;19.20;99.90
563;DHT22;266;49.514;8.294;2023-05-07T08:30:36;19.20;99.90
563;DHT22;266;49.514;8.294;2023-05-07T08:33:04;19.30;99.90
563;DHT22;266;49.514;8.294;2023-05-07T08:35:34;19.50;99.90
563;DHT22;266;49.514;8.294;2023-05-07T08:38:02;19.50;99.90
563;DHT22;266;49.514;8.294;2023-05-07T08:40:34;19.70;99.90
563;DHT22;266;49.514;8.294;2023-05-07T08:43:06;19.80;99.90
563;DHT22;266;49.514;8.294;2023-05-07T08:45:39;20.00;99.90
563;DHT22;266;49.514;8.294;2023-05-07T08:48:09;20.20;99.90
563;DHT22;266;49.514;8.294;2023-05-07T08:50:42;20.30;99.90
563;DHT22;266;49.514;8.294;2023-05-07T08:53:10;20.50;99.90
563;DHT22;266;49.514;8.294;2023-05-07T08:55:38;20.70;99.90
563;DHT22;266;49.514;8.294;2023-05-07T08:58:06;21.10;99.90
563;DHT22;266;49.514;8.294;2023-05-07T09:00:36;21.50;99.90
563;DHT22;266;49.514;8.294;2023-05-07T09:03:05;21.90;99.90
563;DHT22;266;49.514;8.294;2023-05-07T09:05:33;22.00;99.90
563;DHT22;266;49.514;8.294;2023-05-07T09:08:02;22.30;99.90
563;DHT22;266;49.514;8.294;2023-05-07T09:10:33;22.20;99.90
563;DHT22;266;49.514;8.294;2023-05-07T09:13:02;22.40;99.90
563;DHT22;266;49.514;8.294;2023-05-07T09:15:30;22.50;99.90
563;DHT22;266;49.514;8.294;2023-05-07T09:18:02;22.80;99.90
563;DHT22;266;49.514;8.294;2023-05-07T09:20:30;23.30;99.90
563;DHT22;266;49.514;8.294;2023-05-07T09:22:59;23.80;99.90
563;DHT22;266;49.514;8.294;2023-05-07T09:25:31;24.30;99.90
563;DHT22;266;49.514;8.294;2023-05-07T09:27:59;24.60;99.90
563;DHT22;266;49.514;8.294;2023-05-07T09:30:28;24.70;99.90
563;DHT22;266;49.514;8.294;2023-05-07T09:32:58;25.10;99.90
563;DHT22;266;49.514;8.294;2023-05-07T09:35:29;25.40;99.90
563;DHT22;266;49.514;8.294;2023-05-07T09:37:58;25.50;99.90
563;DHT22;266;49.514;8.294;2023-05-07T09:40:30;25.70;99.90
563;DHT22;266;49.514;8.294;2023-05-07T09:43:09;25.80;99.90
563;DHT22;266;49.514;8.294;2023-05-07T09:45:37;25.80;99.90
563;DHT22;266;49.514;8.294;2023-05-07T09:48:06;25.50;99.90
563;DHT22;266;49.514;8.294;2023-05-07T09:50:42;25.40;99.90
563;DHT22;266;49.514;8.294;2023-05-07T09:53:13;25.30;99.90
563;DHT22;266;49.514;8.294;2023-05-07T09:55:42;25.50;99.90
563;DHT22;266;49.514;8.294;2023-05-07T09:58:12;25.90;99.90
563;DHT22;266;49.514;8.294;2023-05-07T10:00:41;26.10;99.90
563;DHT22;266;49.514;8.294;2023-05-07T10:03:09;26.40;99.90
563;DHT22;266;49.514;8.294;2023-05-07T10:05:40;26.70;99.90
563;DHT22;266;49.514;8.294;2023-05-07T10:08:09;26.80;99.90
563;DHT22;266;49.514;8.294;2023-05-07T10:10:41;27.20;99.90
563;DHT22;266;49.514;8.294;2023-05-07T10:13:10;27.20;99.90
563;DHT22;266;49.514;8.294;2023-05-07T10:15:38;26.90;99.90
563;DHT22;266;49.514;8.294;2023-05-07T10:18:07;27.20;99.90
563;DHT22;266;49.514;8.294;2023-05-07T10:20:36;27.00;99.90
563;DHT22;266;49.514;8.294;2023-05-07T10:23:07;26.30;99.90
563;DHT22;266;49.514;8.294;2023-05-07T10:25:36;26.20;99.90
563;DHT22;266;49.514;8.294;2023-05-07T10:28:06;26.10;99.90
563;DHT22;266;49.514;8.294;2023-05-07T10:30:44;26.10;99.90
563;DHT22;266;49.514;8.294;2023-05-07T10:33:19;26.40;99.90
563;DHT22;266;49.514;8.294;2023-05-07T10:35:48;26.70;99.90
563;DHT22;266;49.514;8.294;2023-05-07T10:38:18;27.20;99.90
563;DHT22;266;49.514;8.294;2023-05-07T10:40:46;27.40;99.90
563;DHT22;266;49.514;8.294;2023-05-07T10:43:14;27.20;99.90
563;DHT22;266;49.514;8.294;2023-05-07T10:45:42;26.80;99.90
563;DHT22;266;49.514;8.294;2023-05-07T10:48:12;26.30;99.90
563;DHT22;266;49.514;8.294;2023-05-07T10:51:19;26.30;99.90
563;DHT22;266;49.514;8.294;2023-05-07T10:53:51;26.70;99.90
563;DHT22;266;49.514;8.294;2023-05-07T10:56:40;26.80;99.90
563;DHT22;266;49.514;8.294;2023-05-07T10:59:33;27.30;99.90
563;DHT22;266;49.514;8.294;2023-05-07T11:02:03;27.80;99.90
563;DHT22;266;49.514;8.294;2023-05-07T11:04:33;28.30;99.90
563;DHT22;266;49.514;8.294;2023-05-07T11:07:27;28.30;99.90
563;DHT22;266;49.514;8.294;2023-05-07T11:10:07;28.60;99.90
563;DHT22;266;49.514;8.294;2023-05-07T11:12:54;28.10;99.90
563;DHT22;266;49.514;8.294;2023-05-07T11:15:43;27.40;99.90
563;DHT22;266;49.514;8.294;2023-05-07T11:18:13;27.70;99.90
563;DHT22;266;49.514;8.294;2023-05-07T11:20:55;28.10;99.90
563;DHT22;266;49.514;8.294;2023-05-07T11:23:55;28.30;99.90
563;DHT22;266;49.514;8.294;2023-05-07T11:26:26;27.90;99.90
563;DHT22;266;49.514;8.294;2023-05-07T11:28:55;28.00;99.90
563;DHT22;266;49.514;8.294;2023-05-07T11:31:25;28.50;99.90
563;DHT22;266;49.514;8.294;2023-05-07T11:33:55;28.40;99.90
563;DHT22;266;49.514;8.294;2023-05-07T11:36:30;28.30;99.90
563;DHT22;266;49.514;8.294;2023-05-07T11:38:58;28.60;99.90
563;DHT22;266;49.514;8.294;2023-05-07T11:41:34;29.00;99.90
563;DHT22;266;49.514;8.294;2023-05-07T11:44:04;28.80;99.90
563;DHT22;266;49.514;8.294;2023-05-07T11:46:32;28.60;99.90
563;DHT22;266;49.514;8.294;2023-05-07T11:49:01;28.70;99.90
563;DHT22;266;49.514;8.294;2023-05-07T11:51:30;29.00;99.90
563;DHT22;266;49.514;8.294;2023-05-07T11:53:58;29.60;99.90
563;DHT22;266;49.514;8.294;2023-05-07T11:56:26;29.50;99.90
563;DHT22;266;49.514;8.294;2023-05-07T11:58:55;29.00;99.90
563;DHT22;266;49.514;8.294;2023-05-07T12:01:23;28.70;99.90
563;DHT22;266;49.514;8.294;2023-05-07T12:03:53;28.90;99.90
563;DHT22;266;49.514;8.294;2023-05-07T12:06:21;29.20;99.90
563;DHT22;266;49.514;8.294;2023-05-07T12:08:50;29.50;99.90
563;DHT22;266;49.514;8.294;2023-05-07T12:11:23;29.60;99.90
563;DHT22;266;49.514;8.294;2023-05-07T12:13:55;30.10;99.90
563;DHT22;266;49.514;8.294;2023-05-07T12:16:26;30.40;99.90
563;DHT22;266;49.514;8.294;2023-05-07T12:18:56;30.40;99.90
563;DHT22;266;49.514;8.294;2023-05-07T12:21:26;30.50;99.90
563;DHT22;266;49.514;8.294;2023-05-07T12:23:54;30.50;99.90
563;DHT22;266;49.514;8.294;2023-05-07T12:26:23;30.50;99.90
563;DHT22;266;49.514;8.294;2023-05-07T12:28:51;30.30;99.90
563;DHT22;266;49.514;8.294;2023-05-07T12:31:21;30.10;99.90
563;DHT22;266;49.514;8.294;2023-05-07T12:33:49;29.60;99.90
563;DHT22;266;49.514;8.294;2023-05-07T12:36:17;29.30;99.90
563;DHT22;266;49.514;8.294;2023-05-07T12:38:45;28.70;99.90
563;DHT22;266;49.514;8.294;2023-05-07T12:41:17;28.20;99.90
563;DHT22;266;49.514;8.294;2023-05-07T12:43:45;27.70;99.90
563;DHT22;266;49.514;8.294;2023-05-07T12:46:13;27.50;99.90
563;DHT22;266;49.514;8.294;2023-05-07T12:48:45;27.30;99.90
563;DHT22;266;49.514;8.294;2023-05-07T12:51:13;27.00;99.90
563;DHT22;266;49.514;8.294;2023-05-07T12:53:42;26.80;99.90
563;DHT22;266;49.514;8.294;2023-05-07T12:56:10;26.60;99.90
563;DHT22;266;49.514;8.294;2023-05-07T12:58:38;26.40;99.90
563;DHT22;266;49.514;8.294;2023-05-07T13:01:07;26.20;99.90
563;DHT22;266;49.514;8.294;2023-05-07T13:03:37;26.00;99.90
563;DHT22;266;49.514;8.294;2023-05-07T13:06:08;25.90;99.90
563;DHT22;266;49.514;8.294;2023-05-07T13:08:40;25.70;99.90
563;DHT22;266;49.514;8.294;2023-05-07T13:11:10;25.50;99.90
563;DHT22;266;49.514;8.294;2023-05-07T13:13:40;25.30;99.90
563;DHT22;266;49.514;8.294;2023-05-07T13:16:10;25.00;99.90
563;DHT22;266;49.514;8.294;2023-05-07T13:18:39;24.70;99.90
563;DHT22;266;49.514;8.294;2023-05-07T13:21:11;24.60;99.90
563;DHT22;266;49.514;8.294;2023-05-07T13:23:40;24.50;99.90
563;DHT22;266;49.514;8.294;2023-05-07T13:26:09;24.30;99.90
563;DHT22;266;49.514;8.294;2023-05-07T13:28:52;24.20;99.90
563;DHT22;266;49.514;8.294;2023-05-07T13:31:20;24.10;99.90
563;DHT22;266;49.514;8.294;2023-05-07T13:33:48;23.80;99.90
563;DHT22;266;49.514;8.294;2023-05-07T13:36:18;23.70;99.90
563;DHT22;266;49.514;8.294;2023-05-07T13:38:46;23.50;99.90
563;DHT22;266;49.514;8.294;2023-05-07T13:41:14;23.40;99.90
563;DHT22;266;49.514;8.294;2023-05-07T13:43:42;23.30;99.90
563;DHT22;266;49.514;8.294;2023-05-07T13:46:10;23.30;99.90
563;DHT22;266;49.514;8.294;2023-05-07T13:48:38;23.20;99.90
563;DHT22;266;49.514;8.294;2023-05-07T13:51:06;23.10;99.90
563;DHT22;266;49.514;8.294;2023-05-07T13:53:38;23.00;99.90
563;DHT22;266;49.514;8.294;2023-05-07T13:56:07;22.90;99.90
563;DHT22;266;49.514;8.294;2023-05-07T13:58:35;22.80;99.90
563;DHT22;266;49.514;8.294;2023-05-07T14:01:14;22.70;99.90
563;DHT22;266;49.514;8.294;2023-05-07T14:03:42;22.70;99.90
563;DHT22;266;49.514;8.294;2023-05-07T14:06:11;22.70;99.90
563;DHT22;266;49.514;8.294;2023-05-07T14:08:41;22.60;99.90
563;DHT22;266;49.514;8.294;2023-05-07T14:11:10;22.60;99.90
563;DHT22;266;49.514;8.294;2023-05-07T14:13:41;22.50;99.90
563;DHT22;266;49.514;8.294;2023-05-07T14:16:09;22.50;99.90
563;DHT22;266;49.514;8.294;2023-05-07T14:18:37;22.40;99.90
563;DHT22;266;49.514;8.294;2023-05-07T14:21:06;22.50;99.90
563;DHT22;266;49.514;8.294;2023-05-07T14:23:36;22.40;99.90
563;DHT22;266;49.514;8.294;2023-05-07T14:26:06;22.20;99.90
563;DHT22;266;49.514;8.294;2023-05-07T14:28:34;22.20;99.90
563;DHT22;266;49.514;8.294;2023-05-07T14:31:02;21.90;99.90
563;DHT22;266;49.514;8.294;2023-05-07T14:33:30;21.60;99.90
563;DHT22;266;49.514;8.294;2023-05-07T14:35:58;21.40;99.90
563;DHT22;266;49.514;8.294;2023-05-07T14:38:26;21.10;99.90
563;DHT22;266;49.514;8.294;2023-05-07T14:40:54;20.90;99.90
563;DHT22;266;49.514;8.294;2023-05-07T14:43:24;20.70;99.90
563;DHT22;266;49.514;8.294;2023-05-07T14:45:52;20.50;99.90
563;DHT22;266;49.514;8.294;2023-05-07T14:48:20;20.40;99.90
563;DHT22;266;49.514;8.294;2023-05-07T14:50:48;20.30;99.90
563;DHT22;266;49.514;8.294;2023-05-07T14:53:16;20.20;99.90
563;DHT22;266;49.514;8.294;2023-05-07T14:55:45;20.00;99.90
563;DHT22;266;49.514;8.294;2023-05-07T14:58:13;19.90;99.90
563;DHT22;266;49.514;8.294;2023-05-07T15:00:42;19.50;99.90
563;DHT22;266;49.514;8.294;2023-05-07T15:03:10;19.20;99.90
563;DHT22;266;49.514;8.294;2023-05-07T15:05:40;19.10;99.90
563;DHT22;266;49.514;8.294;2023-05-07T15:08:09;19.00;99.90
563;DHT22;266;49.514;8.294;2023-05-07T15:10:37;18.90;99.90
563;DHT22;266;49.514;8.294;2023-05-07T15:13:08;18.70;99.90
563;DHT22;266;49.514;8.294;2023-05-07T15:15:42;18.50;99.90
563;DHT22;266;49.514;8.294;2023-05-07T15:18:11;18.30;99.90
563;DHT22;266;49.514;8.294;2023-05-07T15:20:43;18.10;99.90
563;DHT22;266;49.514;8.294;2023-05-07T15:23:11;18.00;99.90
563;DHT22;266;49.514;8.294;2023-05-07T15:25:40;17.90;99.90
563;DHT22;266;49.514;8.294;2023-05-07T15:28:08;17.80;99.90
563;DHT22;266;49.514;8.294;2023-05-07T15:30:37;17.60;99.90
563;DHT22;266;49.514;8.294;2023-05-07T15:33:06;17.50;99.90
563;DHT22;266;49.514;8.294;2023-05-07T15:35:34;17.50;99.90
563;DHT22;266;49.514;8.294;2023-05-07T15:38:02;17.40;99.90
563;DHT22;266;49.514;8.294;2023-05-07T15:40:30;17.40;99.90
563;DHT22;266;49.514;8.294;2023-05-07T15:42:59;17.30;99.90
563;DHT22;266;49.514;8.294;2023-05-07T15:45:39;17.30;99.90
563;DHT22;266;49.514;8.294;2023-05-07T15:48:09;17.20;99.90
563;DHT22;266;49.514;8.294;2023-05-07T15:50:37;17.20;99.90
563;DHT22;266;49.514;8.294;2023-05-07T15:53:06;17.10;99.90
563;DHT22;266;49.514;8.294;2023-05-07T15:55:34;17.20;99.90
563;DHT22;266;49.514;8.294;2023-05-07T15:58:02;17.30;99.90
563;DHT22;266;49.514;8.294;2023-05-07T16:00:32;17.30;99.90
563;DHT22;266;49.514;8.294;2023-05-07T16:03:01;17.20;99.90
563;DHT22;266;49.514;8.294;2023-05-07T16:05:31;17.20;99.90
563;DHT22;266;49.514;8.294;2023-05-07T16:07:59;17.10;99.90
563;DHT22;266;49.514;8.294;2023-05-07T16:10:27;17.10;99.90
563;DHT22;266;49.514;8.294;2023-05-07T16:12:55;17.00;99.90
563;DHT22;266;49.514;8.294;2023-05-07T16:15:24;17.00;99.90
563;DHT22;266;49.514;8.294;2023-05-07T16:17:51;17.00;99.90
563;DHT22;266;49.514;8.294;2023-05-07T16:20:26;17.00;99.90
563;DHT22;266;49.514;8.294;2023-05-07T16:22:58;16.90;99.90
563;DHT22;266;49.514;8.294;2023-05-07T16:25:26;16.90;99.90
563;DHT22;266;49.514;8.294;2023-05-07T16:27:54;16.80;99.90
563;DHT22;266;49.514;8.294;2023-05-07T16:30:23;16.80;99.90
563;DHT22;266;49.514;8.294;2023-05-07T16:32:51;16.80;99.90
563;DHT22;266;49.514;8.294;2023-05-07T16:35:19;16.70;99.90
563;DHT22;266;49.514;8.294;2023-05-07T16:37:47;16.80;99.90
563;DHT22;266;49.514;8.294;2023-05-07T16:40:16;16.80;99.90
563;DHT22;266;49.514;8.294;2023-05-07T16:42:44;16.70;99.90
563;DHT22;266;49.514;8.294;2023-05-07T16:45:12;16.70;99.90
563;DHT22;266;49.514;8.294;2023-05-07T16:47:44;16.70;99.90
563;DHT22;266;49.514;8.294;2023-05-07T16:50:12;16.70;99.90